createdAt,value
2019-04-28T04:00:45.161Z,48.85
2019-04-28T04:02:45.126Z,49.26
2019-04-28T04:04:45.115Z,49.06
2019-04-28T04:06:45.078Z,49.14
2019-04-28T04:08:45.058Z,49.44
2019-04-28T04:10:45.101Z,49.01
2019-04-28T04:12:45.021Z,49.01
2019-04-28T04:14:44.997Z,49.22
2019-04-28T04:16:45.007Z,49.09
2019-04-28T04:18:44.952Z,49.19
2019-04-28T04:20:44.959Z,49.19
2019-04-28T04:22:44.924Z,49.51
2019-04-28T04:24:44.892Z,48.99
2019-04-28T04:26:44.878Z,49.51
2019-04-28T04:28:44.894Z,49.27
2019-04-28T04:30:44.824Z,48.46
2019-04-28T04:32:44.850Z,48.76
2019-04-28T04:34:44.779Z,48.56
2019-04-28T04:36:44.780Z,48.76
2019-04-28T04:38:46.397Z,48.35
2019-04-28T04:40:44.730Z,48.66
2019-04-28T04:42:44.713Z,48.97
2019-04-28T04:44:44.670Z,48.97
2019-04-28T04:46:44.684Z,48.46
2019-04-28T04:48:44.648Z,48.56
2019-04-28T04:50:44.612Z,48.94
2019-04-28T04:52:44.585Z,48.74
2019-04-28T04:54:44.636Z,48.02
2019-04-28T04:56:44.543Z,48.33
2019-04-28T04:58:44.542Z,48.54
2019-04-28T05:00:44.553Z,48.31
2019-04-28T05:02:51.226Z,47.89
2019-04-28T05:04:45.479Z,47.79
2019-04-28T05:06:44.434Z,47.79
2019-04-28T05:08:44.431Z,48.51
2019-04-28T05:10:44.414Z,48.10
2019-04-28T05:12:44.372Z,48.10
2019-04-28T05:14:44.429Z,48.21
2019-04-28T05:16:44.340Z,48.31
2019-04-28T05:18:44.337Z,48.08
2019-04-28T05:20:44.283Z,48.10
2019-04-28T05:22:44.275Z,47.97
2019-04-28T05:24:46.242Z,47.46
2019-04-28T05:26:47.730Z,47.77
2019-04-28T05:28:51.527Z,47.88
2019-04-28T05:30:45.180Z,48.08
2019-04-28T05:32:49.595Z,47.56
2019-04-28T05:34:46.690Z,47.56
2019-04-28T05:36:44.766Z,47.56
2019-04-28T05:38:44.144Z,48.08
2019-04-28T05:40:44.075Z,48.26
2019-04-28T05:42:44.057Z,48.16
2019-04-28T05:44:44.033Z,47.56
2019-04-28T05:46:44.041Z,47.24
2019-04-28T05:48:43.987Z,47.67
2019-04-28T05:50:44.046Z,47.55
2019-04-28T05:52:43.947Z,47.55
2019-04-28T05:54:43.916Z,47.34
2019-04-28T05:56:44.007Z,47.31
2019-04-28T05:58:43.866Z,47.44
2019-04-28T06:00:43.908Z,47.44
2019-04-28T06:02:55.475Z,47.22
2019-04-28T06:04:44.807Z,47.22
2019-04-28T06:06:43.846Z,47.11
2019-04-28T06:08:43.768Z,47.22
2019-04-28T06:10:43.751Z,47.50
2019-04-28T06:12:43.728Z,47.73
2019-04-28T06:14:43.724Z,47.50
2019-04-28T06:16:43.742Z,47.60
2019-04-28T06:18:43.658Z,47.60
2019-04-28T06:20:43.631Z,47.19
2019-04-28T06:22:43.650Z,47.91
2019-04-28T06:24:43.597Z,46.99
2019-04-28T06:26:43.566Z,46.97
2019-04-28T06:28:43.608Z,46.04
2019-04-28T06:30:43.535Z,46.25
2019-04-28T06:32:43.540Z,46.64
2019-04-28T06:34:43.493Z,46.23
2019-04-28T06:36:43.490Z,46.31
2019-04-28T06:38:43.441Z,45.88
2019-04-28T06:40:43.430Z,45.55
2019-04-28T06:42:43.388Z,45.45
2019-04-28T06:44:43.442Z,45.73
2019-04-28T06:46:43.372Z,45.32
2019-04-28T06:48:43.335Z,44.90
2019-04-28T06:50:43.306Z,44.96
2019-04-28T06:52:43.326Z,44.32
2019-04-28T06:54:43.275Z,44.12
2019-04-28T06:56:43.280Z,44.43
2019-04-28T06:58:43.303Z,44.20
2019-04-28T07:00:43.237Z,44.20
2019-04-28T07:02:43.180Z,44.71
2019-04-28T07:04:43.171Z,43.87
2019-04-28T07:06:43.169Z,43.57
2019-04-28T07:08:43.122Z,44.16
2019-04-28T07:10:43.111Z,44.77
2019-04-28T07:12:43.076Z,44.14
2019-04-28T07:14:43.138Z,44.45
2019-04-28T07:16:43.036Z,44.04
2019-04-28T07:18:43.018Z,43.51
2019-04-28T07:20:43.072Z,44.14
2019-04-28T07:22:42.970Z,44.04
2019-04-28T07:24:44.894Z,44.24
2019-04-28T07:26:42.923Z,43.93
2019-04-28T07:28:42.902Z,44.04
2019-04-28T07:30:42.886Z,44.75
2019-04-28T07:32:42.907Z,45.18
2019-04-28T07:34:42.884Z,44.57
2019-04-28T07:36:42.834Z,44.54
2019-04-28T07:38:42.808Z,45.36
2019-04-28T07:40:42.782Z,44.57
2019-04-28T07:42:42.770Z,44.46
2019-04-28T07:44:42.727Z,44.57
2019-04-28T07:46:42.708Z,44.77
2019-04-28T07:48:42.705Z,44.45
2019-04-28T07:50:42.678Z,44.20
2019-04-28T07:52:42.658Z,43.32
2019-04-28T07:54:42.626Z,42.05
2019-04-28T07:56:42.590Z,41.64
2019-04-28T07:58:42.577Z,42.43
2019-04-28T08:00:42.589Z,41.55
2019-04-28T08:02:42.528Z,39.81
2019-04-28T08:04:42.536Z,38.71
2019-04-28T08:06:42.486Z,38.40
2019-04-28T08:08:42.475Z,38.36
2019-04-28T08:10:42.456Z,37.59
2019-04-28T08:12:42.413Z,38.68
2019-04-28T08:14:42.410Z,36.81
2019-04-28T08:16:42.371Z,37.08
2019-04-28T08:18:42.406Z,35.94
2019-04-28T08:20:42.330Z,36.29
2019-04-28T08:22:42.308Z,36.25
2019-04-28T08:24:42.291Z,36.50
2019-04-28T08:26:42.308Z,36.12
2019-04-28T08:28:42.260Z,37.07
2019-04-28T08:30:42.218Z,38.94
2019-04-28T08:32:42.209Z,40.39
2019-04-28T08:34:42.239Z,40.83
2019-04-28T08:36:42.161Z,41.17
2019-04-28T08:38:42.143Z,41.09
2019-04-28T08:40:42.142Z,40.99
2019-04-28T08:42:42.108Z,40.35
2019-04-28T08:44:42.114Z,40.59
2019-04-28T08:46:42.065Z,39.99
2019-04-28T08:48:42.029Z,40.71
2019-04-28T08:50:42.011Z,40.53
2019-04-28T08:52:42.037Z,41.77
2019-04-28T08:54:42.002Z,40.73
2019-04-28T08:56:41.945Z,40.41
2019-04-28T08:58:42.009Z,40.81
2019-04-28T09:00:41.901Z,40.79
2019-04-28T09:02:41.894Z,40.73
2019-04-28T09:04:41.876Z,40.17
2019-04-28T09:06:41.860Z,39.32
2019-04-28T09:08:41.824Z,38.67
2019-04-28T09:10:41.805Z,38.73
2019-04-28T09:12:41.776Z,39.25
2019-04-28T09:14:41.757Z,39.90
2019-04-28T09:16:41.749Z,40.44
2019-04-28T09:18:41.732Z,40.25
2019-04-28T09:20:41.691Z,40.69
2019-04-28T09:22:41.692Z,41.43
2019-04-28T09:24:41.651Z,41.57
2019-04-28T09:26:41.626Z,41.51
2019-04-28T09:28:41.628Z,41.93
2019-04-28T09:30:41.597Z,41.45
2019-04-28T09:32:41.561Z,41.87
2019-04-28T09:34:41.525Z,42.40
2019-04-28T09:36:41.550Z,42.21
2019-04-28T09:38:41.488Z,42.21
2019-04-28T09:40:41.476Z,42.24
2019-04-28T09:42:41.455Z,42.03
2019-04-28T09:44:41.452Z,41.63
2019-04-28T09:46:41.409Z,41.91
2019-04-28T09:48:41.437Z,40.99
2019-04-28T09:50:41.383Z,40.21
2019-04-28T09:52:41.334Z,38.93
2019-04-28T09:54:41.349Z,38.44
2019-04-28T09:56:41.313Z,37.92
2019-04-28T09:58:41.292Z,38.92
2019-04-28T10:00:41.264Z,38.00
2019-04-28T10:02:41.250Z,37.79
2019-04-28T10:04:42.060Z,38.39
2019-04-28T10:06:41.194Z,38.72
2019-04-28T10:08:41.388Z,40.06
2019-04-28T10:16:00.891Z,41.77
2019-04-28T10:17:52.838Z,41.89
2019-04-28T10:19:52.791Z,42.01
2019-04-28T10:21:52.933Z,41.82
2019-04-28T10:23:52.774Z,41.91
2019-04-28T10:25:52.732Z,42.64
2019-04-28T10:27:52.705Z,42.58
2019-04-28T10:29:52.819Z,42.50
2019-04-28T10:31:52.675Z,43.42
2019-04-28T10:33:52.662Z,43.14
2019-04-28T10:35:52.608Z,43.48
2019-04-28T10:37:52.868Z,43.89
2019-04-28T10:39:52.582Z,43.10
2019-04-28T10:41:52.761Z,43.80
2019-04-28T10:43:52.559Z,43.83
2019-04-28T10:45:52.665Z,43.12
2019-04-28T10:47:52.507Z,43.20
2019-04-28T10:49:52.535Z,43.71
2019-04-28T10:51:59.060Z,42.88
2019-04-28T10:53:53.593Z,42.25
2019-04-28T10:55:52.428Z,42.46
2019-04-28T10:57:52.389Z,41.83
2019-04-28T10:59:52.354Z,41.83
2019-04-28T11:01:53.158Z,42.21
2019-04-28T11:03:52.319Z,41.29
2019-04-28T11:05:52.288Z,41.17
2019-04-28T11:07:52.524Z,40.84
2019-04-28T11:09:52.257Z,40.91
2019-04-28T11:11:52.234Z,41.21
2019-04-28T11:13:52.208Z,41.29
2019-04-28T11:15:52.357Z,39.97
2019-04-28T11:17:52.202Z,40.06
2019-04-28T11:25:15.867Z,39.21
2019-04-28T11:54:14.387Z,40.39
2019-04-28T11:56:06.488Z,40.11
2019-04-28T11:58:06.618Z,40.30
2019-04-28T12:00:06.474Z,41.21
2019-04-28T12:02:06.449Z,40.71
2019-04-28T12:04:06.394Z,40.61
2019-04-28T12:06:06.572Z,40.91
2019-04-28T12:08:06.368Z,41.31
2019-04-28T12:10:06.650Z,40.52
2019-04-28T12:12:08.550Z,40.52
2019-04-28T12:14:06.298Z,40.59
2019-04-28T12:16:06.264Z,40.80
2019-04-28T12:18:06.259Z,41.41
2019-04-28T12:20:06.456Z,41.31
2019-04-28T12:22:06.205Z,41.63
2019-04-28T12:24:06.198Z,41.63
2019-04-28T12:26:06.151Z,41.55
2019-04-28T12:28:06.310Z,42.16
2019-04-28T12:30:06.141Z,41.85
2019-04-28T12:32:06.122Z,41.88
2019-04-28T12:34:06.075Z,41.77
2019-04-28T12:36:06.221Z,41.77
2019-04-28T12:38:06.078Z,41.88
2019-04-28T12:40:06.066Z,42.47
2019-04-28T12:42:06.011Z,42.60
2019-04-28T12:44:06.861Z,42.40
2019-04-28T12:46:05.942Z,43.22
2019-04-28T12:48:06.102Z,42.74
2019-04-28T12:50:05.924Z,42.86
2019-04-28T12:52:05.902Z,43.28
2019-04-28T12:54:05.859Z,43.60
2019-04-28T12:56:06.066Z,43.00
2019-04-28T12:58:05.865Z,43.62
2019-04-28T13:00:05.873Z,43.84
2019-04-28T13:02:05.764Z,44.69
2019-04-28T13:04:05.929Z,44.29
2019-04-28T13:06:06.149Z,44.83
2019-04-28T13:08:05.719Z,45.46
2019-04-28T13:10:05.780Z,44.78
2019-04-28T13:12:05.694Z,45.20
2019-04-28T13:14:05.644Z,45.32
2019-04-28T13:16:05.615Z,45.85
2019-04-28T13:18:05.853Z,45.77
2019-04-28T13:20:05.675Z,45.77
2019-04-28T13:22:05.811Z,46.09
2019-04-28T13:24:05.541Z,46.60
2019-04-28T13:26:05.701Z,47.23
2019-04-28T13:28:05.540Z,46.64
2019-04-28T13:30:05.543Z,46.75
2019-04-28T13:32:05.458Z,46.75
2019-04-28T13:34:05.630Z,46.64
2019-04-28T13:36:14.525Z,46.87
2019-04-28T13:38:06.394Z,46.38
2019-04-28T13:40:05.350Z,46.81
2019-04-28T13:42:05.559Z,47.31
2019-04-28T13:44:05.348Z,48.05
2019-04-28T13:46:05.306Z,47.85
2019-04-28T13:48:05.320Z,47.75
2019-04-28T13:50:05.435Z,47.14
2019-04-28T13:52:05.248Z,47.14
2019-04-28T13:54:05.413Z,47.14
2019-04-28T13:56:05.211Z,46.83
2019-04-28T13:58:05.238Z,46.83
2019-04-28T14:00:05.215Z,46.63
2019-04-28T14:02:05.278Z,46.53
2019-04-28T14:04:05.192Z,46.53
2019-04-28T14:06:05.134Z,46.81
2019-04-28T14:08:05.076Z,46.00
2019-04-28T14:10:05.083Z,45.98
2019-04-28T14:12:05.061Z,46.06
2019-04-28T14:14:05.000Z,45.45
2019-04-28T14:16:05.239Z,45.53
2019-04-28T14:18:04.964Z,45.59
2019-04-28T14:20:04.949Z,44.88
2019-04-28T14:22:04.943Z,44.56
2019-04-28T14:24:05.155Z,44.54
2019-04-28T14:26:04.874Z,43.71
2019-04-28T14:28:04.864Z,43.80
2019-04-28T14:30:04.819Z,43.79
2019-04-28T14:32:04.955Z,43.97
2019-04-28T14:34:04.778Z,43.74
2019-04-28T14:36:04.817Z,44.05
2019-04-28T14:38:04.768Z,43.74
2019-04-28T14:40:04.940Z,43.42
2019-04-28T14:42:04.722Z,43.60
2019-04-28T14:44:04.673Z,43.28
2019-04-28T14:46:05.540Z,42.38
2019-04-28T14:48:04.701Z,42.33
2019-04-28T14:50:06.863Z,41.69
2019-04-28T14:52:04.587Z,41.67
2019-04-28T14:54:04.560Z,40.71
2019-04-28T14:56:15.633Z,40.59
2019-04-28T14:58:04.541Z,41.74
2019-04-28T15:00:04.484Z,42.27
2019-04-28T15:02:04.668Z,42.90
2019-04-28T15:04:04.541Z,42.92
2019-04-28T15:06:04.436Z,43.84
2019-04-28T15:08:04.482Z,43.14
2019-04-28T15:10:04.774Z,43.74
2019-04-28T15:12:04.373Z,44.15
2019-04-28T15:14:04.366Z,44.87
2019-04-28T15:16:04.364Z,45.42
2019-04-28T15:18:04.962Z,45.14
2019-04-28T15:20:04.299Z,45.86
2019-04-28T15:22:04.258Z,46.31
2019-04-28T15:24:04.239Z,46.73
2019-04-28T15:26:05.861Z,46.48
2019-04-28T15:28:04.181Z,47.51
2019-04-28T15:30:08.856Z,47.00
2019-04-28T15:32:04.147Z,46.91
2019-04-28T15:34:04.847Z,45.45
2019-04-28T15:36:04.130Z,45.20
2019-04-28T15:38:04.071Z,44.98
2019-04-28T16:01:40.953Z,42.86
2019-04-28T17:24:56.534Z,49.20
2019-04-28T17:26:49.479Z,49.12
2019-04-28T17:28:49.420Z,50.04
2019-04-28T17:37:19.264Z,50.29
2019-04-28T17:39:12.217Z,50.82
2019-04-28T17:45:37.490Z,50.56
2019-04-28T17:47:30.388Z,50.84
2019-04-28T17:49:30.327Z,51.68
2019-04-28T17:51:31.730Z,52.20
2019-04-28T17:53:30.276Z,51.68
2019-04-28T17:55:30.306Z,51.79
2019-04-28T17:57:32.782Z,51.81
2019-04-28T17:59:33.987Z,51.61
2019-04-28T18:01:38.063Z,51.91
2019-04-28T18:03:36.912Z,52.04
2019-04-28T18:05:32.420Z,51.93
2019-04-28T18:07:51.791Z,51.93
2019-04-28T18:09:30.110Z,51.43
2019-04-28T18:11:30.088Z,51.84
2019-04-28T18:13:31.341Z,51.45
2019-04-28T18:15:51.049Z,51.65
2019-04-28T18:17:44.288Z,51.86
2019-04-28T18:19:31.269Z,51.76
2019-04-28T18:24:30.837Z,51.60
2019-04-28T18:41:41.652Z,52.54
2019-04-28T18:43:41.544Z,53.18
2019-04-28T18:45:46.994Z,53.08
2019-04-28T18:58:41.045Z,52.82
2019-04-28T19:23:23.589Z,53.74
2019-04-28T19:25:24.436Z,54.25
2019-04-28T19:27:03.856Z,53.77
2019-04-28T19:29:02.781Z,53.56
2019-04-28T20:07:03.553Z,54.07
2019-04-28T20:09:12.366Z,53.97
2019-04-28T20:11:12.358Z,53.86
2019-04-28T20:13:02.850Z,53.63
2019-04-28T20:15:02.969Z,53.66
2019-04-28T20:17:17.733Z,54.35
2019-04-28T20:19:09.257Z,54.25
2019-04-28T20:21:02.727Z,54.15
2019-04-28T20:23:02.710Z,53.84
2019-04-28T20:25:03.217Z,53.43
2019-04-28T20:27:03.610Z,53.74
2019-04-28T20:29:03.777Z,53.43
2019-04-28T20:31:06.255Z,53.84
2019-04-28T20:33:07.329Z,53.50
2019-04-28T20:35:07.188Z,53.30
2019-04-28T20:48:34.782Z,53.35
2019-04-28T21:27:36.599Z,53.55
2019-04-28T22:24:07.622Z,53.42
2019-04-28T22:25:54.115Z,53.73
2019-04-28T22:27:54.783Z,54.25
2019-04-28T22:32:27.712Z,53.31
2019-04-28T22:34:27.682Z,53.94
2019-04-28T22:36:27.645Z,54.55
2019-04-28T22:38:27.844Z,54.12
2019-04-28T22:40:27.619Z,54.12
2019-04-28T22:42:27.588Z,53.50
2019-04-28T22:44:27.565Z,53.91
2019-04-28T22:46:27.757Z,53.89
2019-04-28T22:48:27.571Z,53.58
2019-04-28T22:50:27.502Z,53.47
2019-04-28T22:52:34.716Z,53.47
2019-04-28T22:54:27.647Z,53.16
2019-04-28T22:56:35.107Z,53.78
2019-04-28T22:58:27.817Z,53.68
2019-04-28T23:00:28.150Z,53.60
2019-04-28T23:02:27.680Z,53.78
2019-04-28T23:04:27.634Z,53.27
2019-04-28T23:06:27.345Z,53.58
2019-04-28T23:08:27.312Z,53.58
2019-04-28T23:10:27.287Z,53.68
2019-04-28T23:12:27.385Z,53.78
2019-04-28T23:14:27.265Z,53.89
2019-04-28T23:16:27.239Z,53.27
2019-04-28T23:18:27.193Z,53.89
2019-04-28T23:20:27.296Z,53.06
2019-04-28T23:22:27.172Z,53.27
2019-04-28T23:24:27.142Z,53.06
2019-04-28T23:26:27.103Z,53.16
2019-04-28T23:28:27.225Z,53.47
